Terminal Aerodrome Forecast
Issued by NWS Sterling, VA

Current Version | Previous Version | Graphics & Text | Print | Product List | Glossary On
Versions: 1 2 3 4 5 6 7 8 9 10 11 12 13 14 15 16 17 18 19 20 21 22 23
000
FTUS41 KLWX 262118 AAB
TAFDCA
TAF AMD
KDCA 262118Z 2621/2718 01010KT P6SM SCT025 OVC070
     FM262300 06003KT P6SM BKN025
     FM270500 36005KT 5SM -SHSN OVC015
     FM270900 35005KT P6SM OVC025
     FM271500 34010G18KT P6SM BKN035=

USA.gov is the U.S. government's official web portal to all federal, state and local government web resources and services.